createdAt,value
2022-10-01T00:01:39.995Z,100075.60
2022-10-01T00:04:13.837Z,100079.20
2022-10-01T00:06:48.166Z,100078.60
2022-10-01T00:09:22.176Z,100082.60
2022-10-01T00:11:56.847Z,100087.60
2022-10-01T00:14:30.573Z,100087.00
2022-10-01T00:17:05.020Z,100083.00
2022-10-01T00:19:39.144Z,100091.20
2022-10-01T00:22:13.419Z,100087.00
2022-10-01T00:24:47.470Z,100085.80
2022-10-01T00:27:21.621Z,100084.20
2022-10-01T00:29:55.600Z,100081.00
2022-10-01T00:32:32.416Z,100078.60
2022-10-01T00:35:09.625Z,100084.40
2022-10-01T00:37:43.378Z,100086.80
2022-10-01T00:40:17.223Z,100086.20
2022-10-01T00:42:51.782Z,100091.40
2022-10-01T00:45:25.731Z,100090.20
2022-10-01T00:48:02.329Z,100091.00
2022-10-01T00:50:38.492Z,100088.00
2022-10-01T00:53:14.732Z,100092.60
2022-10-01T00:55:54.304Z,100095.00
2022-10-01T00:58:30.061Z,100088.40
2022-10-01T01:01:03.893Z,100088.80
2022-10-01T01:03:37.663Z,100090.40
2022-10-01T01:06:11.523Z,100087.80
2022-10-01T01:08:45.581Z,100083.00
2022-10-01T01:11:35.079Z,100082.20
2022-10-01T01:14:22.494Z,100079.80
2022-10-01T01:17:02.463Z,100073.40
2022-10-01T01:20:07.725Z,100070.80
2022-10-01T01:22:51.229Z,100072.20
2022-10-01T01:25:33.928Z,100070.60
2022-10-01T01:28:21.745Z,100065.20
2022-10-01T01:31:02.379Z,100067.40
2022-10-01T01:33:40.324Z,100061.20
2022-10-01T01:36:21.599Z,100066.40
2022-10-01T01:39:01.419Z,100065.60
2022-10-01T01:41:44.000Z,100068.00
2022-10-01T01:44:27.137Z,100070.00
2022-10-01T01:47:03.644Z,100068.40
2022-10-01T01:49:38.399Z,100073.60
2022-10-01T01:52:17.448Z,100069.80
2022-10-01T01:54:55.334Z,100070.40
2022-10-01T01:57:29.431Z,100066.00
2022-10-01T02:00:04.024Z,100066.00
2022-10-01T02:02:45.199Z,100063.60
2022-10-01T02:05:24.757Z,100056.20
2022-10-01T02:08:33.222Z,100059.40
2022-10-01T02:11:30.449Z,100058.60
2022-10-01T02:14:19.449Z,100059.00
2022-10-01T02:17:03.708Z,100054.20
2022-10-01T02:19:47.252Z,100049.60
2022-10-01T02:22:27.125Z,100045.00
2022-10-01T02:25:06.419Z,100036.20
2022-10-01T02:27:48.266Z,100040.40
2022-10-01T02:30:22.740Z,100037.80
2022-10-01T02:32:59.073Z,100036.80
2022-10-01T02:35:37.415Z,100027.60
2022-10-01T02:38:13.338Z,100032.60
2022-10-01T02:40:51.460Z,100034.60
2022-10-01T02:43:33.875Z,100030.00
2022-10-01T02:46:21.462Z,100022.60
2022-10-01T02:48:56.351Z,100019.00
2022-10-01T02:51:40.664Z,100010.60
2022-10-01T02:54:25.514Z,100016.20
2022-10-01T02:57:18.310Z,100010.80
2022-10-01T02:59:52.148Z,100007.40
2022-10-01T03:02:28.175Z,100010.40
2022-10-01T03:05:05.404Z,100014.40
2022-10-01T03:07:40.917Z,100017.00
2022-10-01T03:10:16.277Z,100014.00
2022-10-01T03:12:51.113Z,100007.80
2022-10-01T03:15:25.255Z,100005.40
2022-10-01T03:17:59.321Z,100003.20
2022-10-01T03:20:33.473Z,100006.00
2022-10-01T03:23:07.325Z,100009.00
2022-10-01T03:25:41.673Z,100009.60
2022-10-01T03:28:15.517Z,100008.40
2022-10-01T03:30:49.341Z,100007.20
2022-10-01T03:33:23.133Z,100006.40
2022-10-01T03:35:56.778Z,100002.60
2022-10-01T03:38:30.777Z,100004.00
2022-10-01T03:41:06.719Z,99996.40
2022-10-01T03:43:40.628Z,99993.80
2022-10-01T03:46:14.677Z,99994.40
2022-10-01T03:48:49.332Z,99991.20
2022-10-01T03:51:23.350Z,99988.00
2022-10-01T03:53:57.202Z,99983.20
2022-10-01T03:56:31.354Z,99979.60
2022-10-01T03:59:05.456Z,99986.00
2022-10-01T04:01:40.826Z,99983.40
2022-10-01T04:04:17.374Z,99981.60
2022-10-01T04:06:51.556Z,99987.80
2022-10-01T04:09:25.287Z,99981.40
2022-10-01T04:11:59.269Z,99983.20
2022-10-01T04:14:33.086Z,99983.00
2022-10-01T04:17:06.855Z,99981.60
2022-10-01T04:19:40.779Z,99980.40
2022-10-01T04:22:14.811Z,99974.40
2022-10-01T04:24:48.699Z,99976.80
2022-10-01T04:27:22.754Z,99978.20
2022-10-01T04:29:56.607Z,99972.80
2022-10-01T04:32:30.128Z,99979.00
2022-10-01T04:35:04.611Z,99980.20
2022-10-01T04:37:38.357Z,99978.40
2022-10-01T04:40:15.330Z,99976.80
2022-10-01T04:42:49.014Z,99976.20
2022-10-01T04:45:23.053Z,99983.00
2022-10-01T04:47:58.409Z,99984.80
2022-10-01T04:50:33.217Z,99983.80
2022-10-01T04:53:07.195Z,99985.20
2022-10-01T04:55:41.753Z,99987.00
2022-10-01T04:58:15.733Z,99980.80
2022-10-01T05:00:50.411Z,99978.00
2022-10-01T05:03:24.475Z,99978.60
2022-10-01T05:05:58.377Z,99976.20
2022-10-01T05:08:32.830Z,99980.80
2022-10-01T05:11:07.143Z,99978.40
2022-10-01T05:13:41.840Z,99978.60
2022-10-01T05:16:15.804Z,99975.40
2022-10-01T05:18:50.712Z,99971.40
2022-10-01T05:21:25.432Z,99973.80
2022-10-01T05:24:01.464Z,99963.60
2022-10-01T05:26:38.298Z,99968.80
2022-10-01T05:29:15.696Z,99968.20
2022-10-01T05:31:49.594Z,99965.00
2022-10-01T05:34:24.165Z,99966.40
2022-10-01T05:36:59.361Z,99963.00
2022-10-01T05:39:34.057Z,99965.80
2022-10-01T05:42:08.179Z,99965.40
2022-10-01T05:44:46.303Z,99970.00
2022-10-01T05:47:21.635Z,99970.40
2022-10-01T05:49:56.059Z,99967.60
2022-10-01T05:52:29.915Z,99968.00
2022-10-01T05:55:04.205Z,99967.00
2022-10-01T05:57:39.043Z,99962.80
2022-10-01T06:00:15.830Z,99957.40
2022-10-01T06:02:55.138Z,99956.80
2022-10-01T06:05:30.565Z,99955.80
2022-10-01T06:08:07.789Z,99955.60
2022-10-01T06:10:42.563Z,99952.40
2022-10-01T06:13:17.974Z,99954.00
2022-10-01T06:15:55.617Z,99953.40
2022-10-01T06:18:29.766Z,99953.00
2022-10-01T06:21:04.261Z,99955.40
2022-10-01T06:23:38.323Z,99956.40
2022-10-01T06:26:12.443Z,99959.20
2022-10-01T06:28:46.462Z,99954.60
2022-10-01T06:31:21.288Z,99950.80
2022-10-01T06:33:55.507Z,99944.20
2022-10-01T06:36:29.605Z,99950.00
2022-10-01T06:39:03.787Z,99948.40
2022-10-01T06:41:38.141Z,99940.40
2022-10-01T06:44:15.972Z,99937.40
2022-10-01T06:46:50.367Z,99940.80
2022-10-01T06:49:25.126Z,99937.60
2022-10-01T06:52:16.163Z,99930.80
2022-10-01T06:54:50.398Z,99935.40
2022-10-01T06:57:24.723Z,99934.40
2022-10-01T06:59:59.735Z,99930.60
2022-10-01T07:02:33.775Z,99925.00
2022-10-01T07:05:10.772Z,99921.80
2022-10-01T07:07:45.035Z,99918.60
2022-10-01T07:10:21.949Z,99920.80
2022-10-01T07:12:56.209Z,99917.00
2022-10-01T07:15:31.618Z,99915.40
2022-10-01T07:18:06.385Z,99912.20
2022-10-01T07:20:42.550Z,99906.40
2022-10-01T07:23:18.113Z,99906.80
2022-10-01T07:25:51.779Z,99906.20
2022-10-01T07:28:27.048Z,99905.40
2022-10-01T07:31:11.383Z,99907.40
2022-10-01T07:33:46.000Z,99900.80
2022-10-01T07:36:20.537Z,99897.00
2022-10-01T07:38:56.112Z,99894.40
2022-10-01T07:41:33.643Z,99892.40
2022-10-01T07:44:09.057Z,99886.20
2022-10-01T07:46:43.942Z,99885.60
2022-10-01T07:49:19.259Z,99885.40
2022-10-01T07:51:54.593Z,99885.20
2022-10-01T07:54:29.236Z,99883.60
2022-10-01T07:57:03.220Z,99880.60
2022-10-01T07:59:38.262Z,99872.80
2022-10-01T08:02:20.483Z,99873.80
2022-10-01T08:05:12.190Z,99872.80
2022-10-01T08:07:46.728Z,99873.80
2022-10-01T08:10:23.929Z,99870.40
2022-10-01T08:13:08.298Z,99865.60
2022-10-01T08:15:45.070Z,99860.00
2022-10-01T08:18:22.860Z,99854.60
2022-10-01T08:20:57.346Z,99846.60
2022-10-01T08:23:33.513Z,99842.20
2022-10-01T08:26:11.518Z,99839.80
2022-10-01T08:28:45.785Z,99839.20
2022-10-01T08:31:20.624Z,99836.00
2022-10-01T08:33:55.303Z,99830.40
2022-10-01T08:36:30.865Z,99827.20
2022-10-01T08:39:05.518Z,99822.40
2022-10-01T08:41:55.634Z,99814.00
2022-10-01T08:44:41.367Z,99802.40
2022-10-01T08:47:24.962Z,99798.40
2022-10-01T08:50:05.933Z,99793.60
2022-10-01T08:52:51.889Z,99782.40
2022-10-01T08:55:36.350Z,99767.00
2022-10-01T08:58:19.348Z,99770.60
2022-10-01T09:00:54.611Z,99758.20
2022-10-01T09:03:37.161Z,99757.20
2022-10-01T09:06:23.670Z,99753.60
2022-10-01T09:09:26.155Z,99751.40
2022-10-01T09:12:37.402Z,99749.00
2022-10-01T09:15:32.649Z,99747.40
2022-10-01T09:18:23.073Z,99741.80
2022-10-01T09:21:01.871Z,99734.40
2022-10-01T09:23:43.481Z,99729.20
2022-10-01T09:26:25.525Z,99720.60
2022-10-01T09:29:04.391Z,99721.00
2022-10-01T09:31:46.014Z,99714.80
2022-10-01T09:34:28.161Z,99714.40
2022-10-01T09:37:15.242Z,99705.20
2022-10-01T09:40:07.099Z,99709.80
2022-10-01T09:42:41.536Z,99713.00
2022-10-01T09:45:20.199Z,99701.80
2022-10-01T09:48:00.160Z,99709.00
2022-10-01T09:50:45.698Z,99714.00
2022-10-01T09:53:25.632Z,99715.60
2022-10-01T09:56:12.101Z,99709.40
2022-10-01T09:58:56.254Z,99705.20
2022-10-01T10:01:46.668Z,99696.60
2022-10-01T10:04:26.921Z,99690.20
2022-10-01T10:07:20.725Z,99692.20
2022-10-01T10:09:56.889Z,99692.20
2022-10-01T10:12:34.824Z,99689.40
2022-10-01T10:15:19.149Z,99684.80
2022-10-01T10:17:56.127Z,99678.40
2022-10-01T10:20:40.157Z,99674.40
2022-10-01T10:23:21.766Z,99672.00
2022-10-01T10:26:03.443Z,99671.20
2022-10-01T10:28:46.805Z,99668.20
2022-10-01T10:31:24.441Z,99664.20
2022-10-01T10:34:07.996Z,99668.40
2022-10-01T10:36:46.057Z,99658.00
2022-10-01T10:39:30.305Z,99652.60
2022-10-01T10:42:15.314Z,99640.20
2022-10-01T10:44:54.817Z,99642.40
2022-10-01T10:47:31.597Z,99638.40
2022-10-01T10:50:30.531Z,99629.00
2022-10-01T10:53:20.062Z,99632.00
2022-10-01T10:56:03.958Z,99617.40
2022-10-01T10:58:40.954Z,99612.80
2022-10-01T11:01:22.902Z,99606.80
2022-10-01T11:04:01.448Z,99596.60
2022-10-01T11:06:35.917Z,99598.20
2022-10-01T11:09:19.781Z,99601.40
2022-10-01T11:12:06.321Z,99595.00
2022-10-01T11:15:03.322Z,99593.40
2022-10-01T11:18:15.353Z,99587.60
2022-10-01T11:21:07.313Z,99583.60
2022-10-01T11:24:07.459Z,99578.80
2022-10-01T11:26:55.452Z,99579.60
2022-10-01T11:29:45.965Z,99576.00
2022-10-01T11:32:34.159Z,99575.40
2022-10-01T11:35:44.261Z,99569.80
2022-10-01T11:38:55.600Z,99566.20
2022-10-01T11:41:43.764Z,99557.00
2022-10-01T11:44:27.410Z,99555.60
2022-10-01T11:47:07.336Z,99555.80
2022-10-01T11:49:58.083Z,99546.40
2022-10-01T11:52:42.180Z,99543.60
2022-10-01T11:55:42.576Z,99544.80
2022-10-01T11:58:47.694Z,99539.60
2022-10-01T12:01:30.670Z,99538.60
2022-10-01T12:04:19.676Z,99539.20
2022-10-01T12:07:04.822Z,99538.40
2022-10-01T12:10:04.451Z,99527.80
2022-10-01T12:12:58.454Z,99529.80
2022-10-01T12:15:41.199Z,99529.20
2022-10-01T12:18:27.388Z,99523.20
2022-10-01T12:21:09.229Z,99528.80
2022-10-01T12:23:52.747Z,99523.00
2022-10-01T12:26:46.433Z,99513.80
2022-10-01T12:29:28.232Z,99512.00
2022-10-01T12:32:13.934Z,99504.40
2022-10-01T12:35:06.784Z,99506.60
2022-10-01T12:38:02.028Z,99503.80
2022-10-01T12:40:47.127Z,99491.80
2022-10-01T12:44:09.147Z,99495.60
2022-10-01T12:46:53.894Z,99489.00
2022-10-01T12:49:39.781Z,99479.00
2022-10-01T12:52:28.555Z,99474.20
2022-10-01T12:55:49.315Z,99471.40
2022-10-01T12:58:56.249Z,99469.20
2022-10-01T13:02:00.625Z,99472.80
2022-10-01T13:05:13.952Z,99464.20
2022-10-01T13:08:06.759Z,99466.80
2022-10-01T13:11:06.089Z,99459.20
2022-10-01T13:13:44.989Z,99461.60
2022-10-01T13:16:30.819Z,99460.20
2022-10-01T13:19:16.162Z,99460.20
2022-10-01T13:22:14.616Z,99451.60
2022-10-01T13:24:59.068Z,99451.00
2022-10-01T13:27:45.217Z,99452.20
2022-10-01T13:30:26.892Z,99448.80
2022-10-01T13:33:05.868Z,99451.20
2022-10-01T13:35:53.857Z,99452.80
2022-10-01T13:38:44.474Z,99451.60
2022-10-01T13:41:29.197Z,99445.80
2022-10-01T13:44:23.141Z,99443.00
2022-10-01T13:47:06.179Z,99444.80
2022-10-01T13:49:42.510Z,99443.80
2022-10-01T13:52:25.305Z,99438.80
2022-10-01T13:55:02.749Z,99441.00
2022-10-01T13:57:40.067Z,99442.20
2022-10-01T14:00:31.086Z,99435.60
2022-10-01T14:03:29.787Z,99429.00
2022-10-01T14:06:08.464Z,99431.80
2022-10-01T14:08:51.229Z,99431.20
2022-10-01T14:11:51.425Z,99424.60
2022-10-01T14:14:52.426Z,99425.20
2022-10-01T14:17:30.522Z,99420.20
2022-10-01T14:20:06.509Z,99418.80
2022-10-01T14:23:05.993Z,99412.40
2022-10-01T14:25:54.696Z,99413.40
2022-10-01T14:29:00.262Z,99413.00
2022-10-01T14:31:51.266Z,99402.40
2022-10-01T14:34:48.367Z,99409.00
2022-10-01T14:37:24.403Z,99404.20
2022-10-01T14:40:16.785Z,99398.40
2022-10-01T14:43:02.155Z,99399.60
2022-10-01T14:45:36.532Z,99394.60
2022-10-01T14:48:13.488Z,99396.20
2022-10-01T14:50:53.531Z,99396.40
2022-10-01T14:53:30.268Z,99393.60
2022-10-01T14:56:11.065Z,99394.60
2022-10-01T14:58:49.436Z,99396.40
2022-10-01T15:01:25.845Z,99401.80
2022-10-01T15:04:00.282Z,99403.00
2022-10-01T15:06:44.405Z,99404.00
2022-10-01T15:09:20.778Z,99418.60
2022-10-01T15:11:55.735Z,99431.40
2022-10-01T15:14:32.019Z,99443.60
2022-10-01T15:17:17.704Z,99459.00
2022-10-01T15:19:55.085Z,99472.40
2022-10-01T15:22:34.271Z,99473.60
2022-10-01T15:25:17.633Z,99474.80
2022-10-01T15:27:54.279Z,99476.80
2022-10-01T15:30:31.192Z,99475.80
2022-10-01T15:33:29.592Z,99477.00
2022-10-01T15:36:06.882Z,99472.60
2022-10-01T15:38:44.511Z,99481.00
2022-10-01T15:41:32.671Z,99482.80
2022-10-01T15:44:28.788Z,99481.80
2022-10-01T15:47:32.742Z,99479.20
2022-10-01T15:50:19.652Z,99476.80
2022-10-01T15:53:07.079Z,99473.20
2022-10-01T15:55:47.746Z,99468.20
2022-10-01T15:58:27.186Z,99472.00
2022-10-01T16:01:07.612Z,99464.00
2022-10-01T16:03:50.636Z,99463.80
2022-10-01T16:06:29.404Z,99460.40
2022-10-01T16:09:17.316Z,99453.80
2022-10-01T16:12:00.523Z,99461.20
2022-10-01T16:14:42.369Z,99463.00
2022-10-01T16:17:33.201Z,99463.20
2022-10-01T16:20:39.870Z,99461.60
2022-10-01T16:23:41.900Z,99459.40
2022-10-01T16:26:41.265Z,99463.80
2022-10-01T16:29:28.726Z,99462.00
2022-10-01T16:32:04.104Z,99463.00
2022-10-01T16:34:37.853Z,99458.80
2022-10-01T16:37:13.744Z,99460.40
2022-10-01T16:39:48.532Z,99460.20
2022-10-01T16:42:26.471Z,99460.80
2022-10-01T16:45:00.585Z,99467.00
2022-10-01T16:47:38.530Z,99463.20
2022-10-01T16:50:19.352Z,99461.60
2022-10-01T16:53:01.298Z,99459.40
2022-10-01T16:55:38.052Z,99463.40
2022-10-01T16:58:12.917Z,99467.40
2022-10-01T17:00:47.313Z,99462.60
2022-10-01T17:03:24.612Z,99467.40
2022-10-01T17:05:58.306Z,99464.00
2022-10-01T17:08:32.003Z,99465.00
2022-10-01T17:11:10.615Z,99454.20
2022-10-01T17:13:46.723Z,99463.00
2022-10-01T17:16:24.518Z,99467.60
2022-10-01T17:18:59.148Z,99467.80
2022-10-01T17:21:33.747Z,99470.40
2022-10-01T17:24:10.734Z,99472.60
2022-10-01T17:26:46.603Z,99472.20
2022-10-01T17:29:20.417Z,99483.20
2022-10-01T17:31:54.468Z,99479.20
2022-10-01T17:34:28.997Z,99479.00
2022-10-01T17:37:03.102Z,99475.40
2022-10-01T17:39:37.151Z,99473.60
2022-10-01T17:42:15.149Z,99467.40
2022-10-01T17:44:50.184Z,99467.60
2022-10-01T17:47:24.192Z,99470.60
2022-10-01T17:49:57.834Z,99470.80
2022-10-01T17:52:32.598Z,99470.80
2022-10-01T17:55:07.168Z,99469.40
2022-10-01T17:57:41.395Z,99468.80
2022-10-01T18:00:16.348Z,99472.40
2022-10-01T18:02:50.496Z,99477.60
2022-10-01T18:05:24.772Z,99478.40
2022-10-01T18:07:59.020Z,99477.80
2022-10-01T18:10:33.468Z,99483.60
2022-10-01T18:13:07.436Z,99488.60
2022-10-01T18:15:42.113Z,99499.00
2022-10-01T18:21:14.941Z,99502.40
2022-10-01T18:23:49.048Z,99509.20
2022-10-01T18:26:23.141Z,99509.40
2022-10-01T18:28:57.817Z,99507.20
2022-10-01T18:31:37.190Z,99504.40
2022-10-01T18:34:22.531Z,99502.20
2022-10-01T18:37:06.346Z,99507.60
2022-10-01T18:39:48.798Z,99511.40
2022-10-01T18:42:33.038Z,99506.20
2022-10-01T18:45:15.202Z,99511.80
2022-10-01T18:48:06.792Z,99509.00
2022-10-01T18:50:50.679Z,99502.00
2022-10-01T18:53:50.376Z,99499.60
2022-10-01T18:56:35.075Z,99494.00
2022-10-01T18:59:46.506Z,99500.00
2022-10-01T19:03:02.576Z,99499.00
2022-10-01T19:06:15.186Z,99499.40
2022-10-01T19:09:11.082Z,99500.00
2022-10-01T19:12:00.635Z,99501.20
2022-10-01T19:14:56.011Z,99502.20
2022-10-01T19:18:01.117Z,99505.20
2022-10-01T19:20:55.220Z,99506.00
2022-10-01T19:24:06.996Z,99506.80
2022-10-01T19:26:54.113Z,99507.80
2022-10-01T19:29:53.305Z,99510.80
2022-10-01T19:32:37.145Z,99504.60
2022-10-01T19:35:21.244Z,99500.40
2022-10-01T19:38:04.280Z,99499.40
2022-10-01T19:40:47.188Z,99513.40
2022-10-01T19:43:29.449Z,99506.80
2022-10-01T19:46:16.001Z,99512.20
2022-10-01T19:48:58.227Z,99516.60
2022-10-01T19:51:40.786Z,99518.80
2022-10-01T19:54:20.298Z,99522.00
2022-10-01T19:57:07.569Z,99521.00
2022-10-01T19:59:42.011Z,99522.60
2022-10-01T20:02:32.967Z,99522.80
2022-10-01T20:05:14.827Z,99529.40
2022-10-01T20:07:56.059Z,99529.00
2022-10-01T20:10:39.007Z,99525.20
2022-10-01T20:13:36.247Z,99527.80
2022-10-01T20:16:19.932Z,99523.80
2022-10-01T20:19:05.697Z,99524.40
2022-10-01T20:21:56.295Z,99527.40
2022-10-01T20:24:47.932Z,99528.40
2022-10-01T20:27:36.759Z,99530.00
2022-10-01T20:30:16.006Z,99531.20
2022-10-01T20:33:01.720Z,99532.80
2022-10-01T20:35:48.382Z,99532.00
2022-10-01T20:38:31.916Z,99532.00
2022-10-01T20:41:13.975Z,99536.00
2022-10-01T20:43:53.129Z,99540.00
2022-10-01T20:46:38.507Z,99539.60
2022-10-01T20:49:24.536Z,99539.20
2022-10-01T20:52:09.001Z,99539.00
2022-10-01T20:54:52.089Z,99540.40
2022-10-01T20:57:36.071Z,99547.80
2022-10-01T21:00:19.167Z,99546.80
2022-10-01T21:03:00.837Z,99546.60
2022-10-01T21:05:43.213Z,99556.00
2022-10-01T21:08:35.687Z,99554.80
2022-10-01T21:11:17.134Z,99559.40
2022-10-01T21:14:00.636Z,99562.60
2022-10-01T21:17:06.950Z,99555.00
2022-10-01T21:20:04.081Z,99559.00
2022-10-01T21:22:57.380Z,99562.00
2022-10-01T21:25:44.179Z,99569.80
2022-10-01T21:28:39.086Z,99566.20
2022-10-01T21:31:31.661Z,99570.80
2022-10-01T21:34:22.383Z,99570.80
2022-10-01T21:37:16.308Z,99575.80
2022-10-01T21:40:07.568Z,99577.00
2022-10-01T21:42:54.269Z,99579.20
2022-10-01T21:45:44.743Z,99583.20
2022-10-01T21:48:39.678Z,99582.80
2022-10-01T21:51:27.380Z,99587.00
2022-10-01T21:54:30.231Z,99578.40
2022-10-01T21:57:28.549Z,99582.40
2022-10-01T22:00:19.672Z,99587.00
2022-10-01T22:03:11.163Z,99590.20
2022-10-01T22:05:54.910Z,99585.60
2022-10-01T22:08:54.176Z,99584.00
2022-10-01T22:11:31.763Z,99589.40
2022-10-01T22:14:14.391Z,99594.60
2022-10-01T22:16:57.428Z,99600.80
2022-10-01T22:19:36.423Z,99594.80
2022-10-01T22:22:18.376Z,99600.60
2022-10-01T22:24:55.947Z,99604.20
2022-10-01T22:27:37.753Z,99607.80
2022-10-01T22:30:17.853Z,99607.20
2022-10-01T22:33:02.738Z,99609.80
2022-10-01T22:35:46.227Z,99609.20
2022-10-01T22:38:25.957Z,99613.60
2022-10-01T22:41:14.632Z,99619.40
2022-10-01T22:43:48.735Z,99622.60
2022-10-01T22:47:07.634Z,99621.80
2022-10-01T22:50:01.984Z,99624.20
2022-10-01T22:52:47.696Z,99624.60
2022-10-01T22:55:36.353Z,99626.00
2022-10-01T22:58:39.449Z,99629.80
2022-10-01T23:01:25.974Z,99629.20
2022-10-01T23:04:24.919Z,99629.40
2022-10-01T23:07:15.484Z,99633.60
2022-10-01T23:10:01.835Z,99634.60
2022-10-01T23:12:46.877Z,99639.20
2022-10-01T23:15:36.118Z,99643.80
2022-10-01T23:18:27.053Z,99640.40
2022-10-01T23:21:25.251Z,99645.40
2022-10-01T23:24:15.046Z,99649.00
2022-10-01T23:27:03.438Z,99649.40
2022-10-01T23:30:04.627Z,99657.20
2022-10-01T23:33:06.463Z,99655.80
2022-10-01T23:35:57.342Z,99670.80
2022-10-01T23:39:14.030Z,99664.20
2022-10-01T23:41:55.200Z,99665.00
2022-10-01T23:44:40.279Z,99671.00
2022-10-01T23:47:25.254Z,99676.40
2022-10-01T23:50:01.945Z,99684.00
2022-10-01T23:52:45.450Z,99683.20
2022-10-01T23:55:45.643Z,99688.40
2022-10-01T23:58:22.256Z,99690.60
